sensor_id;sensor_type;location;lat;lon;timestamp;pressure;altitude;pressure_sealevel;temperature;humidity
8941;BME280;4505;43.406;23.226;2023-09-07T00:01:49;100379.56;;;20.60;100.00
8941;BME280;4505;43.406;23.226;2023-09-07T00:04:17;100368.41;;;20.38;100.00
8941;BME280;4505;43.406;23.226;2023-09-07T00:06:44;100370.41;;;20.56;100.00
8941;BME280;4505;43.406;23.226;2023-09-07T00:09:10;100371.66;;;20.35;100.00
8941;BME280;4505;43.406;23.226;2023-09-07T00:11:38;100364.91;;;20.37;100.00
8941;BME280;4505;43.406;23.226;2023-09-07T00:14:06;100368.03;;;20.49;100.00
8941;BME280;4505;43.406;23.226;2023-09-07T00:16:33;100375.25;;;20.59;100.00
8941;BME280;4505;43.406;23.226;2023-09-07T00:19:00;100377.56;;;20.42;100.00
8941;BME280;4505;43.406;23.226;2023-09-07T00:21:28;100380.47;;;20.50;100.00
8941;BME280;4505;43.406;23.226;2023-09-07T00:23:54;100381.28;;;20.46;100.00
8941;BME280;4505;43.406;23.226;2023-09-07T00:26:21;100385.06;;;20.50;100.00
8941;BME280;4505;43.406;23.226;2023-09-07T00:28:48;100377.53;;;20.47;100.00
8941;BME280;4505;43.406;23.226;2023-09-07T00:31:16;100381.31;;;20.79;100.00
8941;BME280;4505;43.406;23.226;2023-09-07T00:33:42;100376.03;;;20.64;100.00
8941;BME280;4505;43.406;23.226;2023-09-07T00:36:09;100376.34;;;20.58;100.00
8941;BME280;4505;43.406;23.226;2023-09-07T00:38:35;100372.13;;;21.09;100.00
8941;BME280;4505;43.406;23.226;2023-09-07T00:41:02;100370.03;;;21.01;100.00
8941;BME280;4505;43.406;23.226;2023-09-07T00:43:28;100370.44;;;20.84;100.00
8941;BME280;4505;43.406;23.226;2023-09-07T00:45:55;100370.56;;;20.74;100.00
8941;BME280;4505;43.406;23.226;2023-09-07T00:48:23;100365.50;;;20.63;100.00
8941;BME280;4505;43.406;23.226;2023-09-07T00:50:49;100371.78;;;20.58;100.00
8941;BME280;4505;43.406;23.226;2023-09-07T00:53:16;100369.34;;;20.57;100.00
8941;BME280;4505;43.406;23.226;2023-09-07T00:55:43;100367.59;;;20.42;100.00
8941;BME280;4505;43.406;23.226;2023-09-07T00:58:10;100369.78;;;20.35;100.00
8941;BME280;4505;43.406;23.226;2023-09-07T01:00:37;100364.09;;;20.37;100.00
8941;BME280;4505;43.406;23.226;2023-09-07T01:03:05;100355.66;;;20.48;100.00
8941;BME280;4505;43.406;23.226;2023-09-07T01:05:45;100363.06;;;20.66;100.00
8941;BME280;4505;43.406;23.226;2023-09-07T01:08:15;100372.28;;;20.60;100.00
8941;BME280;4505;43.406;23.226;2023-09-07T01:10:44;100362.25;;;20.66;100.00
8941;BME280;4505;43.406;23.226;2023-09-07T01:13:10;100365.94;;;20.75;100.00
8941;BME280;4505;43.406;23.226;2023-09-07T01:15:37;100362.81;;;20.91;100.00
8941;BME280;4505;43.406;23.226;2023-09-07T01:18:04;100357.41;;;20.96;100.00
8941;BME280;4505;43.406;23.226;2023-09-07T01:20:33;100355.88;;;20.85;100.00
8941;BME280;4505;43.406;23.226;2023-09-07T01:23:02;100353.34;;;20.94;100.00
8941;BME280;4505;43.406;23.226;2023-09-07T01:25:29;100366.66;;;20.85;100.00
8941;BME280;4505;43.406;23.226;2023-09-07T01:27:57;100351.97;;;20.68;100.00
8941;BME280;4505;43.406;23.226;2023-09-07T01:30:25;100359.84;;;20.64;100.00
8941;BME280;4505;43.406;23.226;2023-09-07T01:32:53;100363.19;;;20.51;100.00
8941;BME280;4505;43.406;23.226;2023-09-07T01:35:19;100364.91;;;20.37;100.00
8941;BME280;4505;43.406;23.226;2023-09-07T01:37:46;100360.38;;;20.33;100.00
8941;BME280;4505;43.406;23.226;2023-09-07T01:40:14;100363.53;;;20.40;100.00
8941;BME280;4505;43.406;23.226;2023-09-07T01:42:41;100362.31;;;20.56;100.00
8941;BME280;4505;43.406;23.226;2023-09-07T01:45:08;100356.94;;;20.56;100.00
8941;BME280;4505;43.406;23.226;2023-09-07T01:47:34;100356.38;;;20.59;100.00
8941;BME280;4505;43.406;23.226;2023-09-07T01:50:01;100360.47;;;20.51;100.00
8941;BME280;4505;43.406;23.226;2023-09-07T01:52:28;100356.53;;;20.39;100.00
8941;BME280;4505;43.406;23.226;2023-09-07T01:54:56;100363.25;;;20.75;100.00
8941;BME280;4505;43.406;23.226;2023-09-07T01:57:24;100359.34;;;20.57;100.00
8941;BME280;4505;43.406;23.226;2023-09-07T01:59:51;100363.44;;;20.83;100.00
8941;BME280;4505;43.406;23.226;2023-09-07T02:02:17;100365.91;;;20.80;100.00
8941;BME280;4505;43.406;23.226;2023-09-07T02:04:44;100366.91;;;20.89;100.00
8941;BME280;4505;43.406;23.226;2023-09-07T02:07:11;100372.09;;;20.80;100.00
8941;BME280;4505;43.406;23.226;2023-09-07T02:09:37;100371.63;;;20.73;100.00
8941;BME280;4505;43.406;23.226;2023-09-07T02:12:04;100364.81;;;20.81;100.00
8941;BME280;4505;43.406;23.226;2023-09-07T02:14:32;100368.09;;;20.44;100.00
8941;BME280;4505;43.406;23.226;2023-09-07T02:16:59;100370.00;;;20.44;100.00
8941;BME280;4505;43.406;23.226;2023-09-07T02:19:25;100382.44;;;20.35;100.00
8941;BME280;4505;43.406;23.226;2023-09-07T02:21:52;100370.88;;;20.34;100.00
8941;BME280;4505;43.406;23.226;2023-09-07T02:24:19;100375.47;;;20.34;100.00
8941;BME280;4505;43.406;23.226;2023-09-07T02:26:45;100371.31;;;20.46;100.00
8941;BME280;4505;43.406;23.226;2023-09-07T02:29:12;100374.03;;;20.75;100.00
8941;BME280;4505;43.406;23.226;2023-09-07T02:31:40;100376.34;;;20.58;100.00
8941;BME280;4505;43.406;23.226;2023-09-07T02:34:07;100378.13;;;20.39;100.00
8941;BME280;4505;43.406;23.226;2023-09-07T02:36:33;100377.88;;;20.35;100.00
8941;BME280;4505;43.406;23.226;2023-09-07T02:39:00;100392.53;;;20.24;100.00
8941;BME280;4505;43.406;23.226;2023-09-07T02:41:28;100384.16;;;20.59;100.00
8941;BME280;4505;43.406;23.226;2023-09-07T02:43:55;100385.28;;;20.20;100.00
8941;BME280;4505;43.406;23.226;2023-09-07T02:46:22;100383.56;;;20.34;100.00
8941;BME280;4505;43.406;23.226;2023-09-07T02:48:52;100381.50;;;20.54;100.00
8941;BME280;4505;43.406;23.226;2023-09-07T02:51:22;100381.84;;;20.43;100.00
8941;BME280;4505;43.406;23.226;2023-09-07T02:53:48;100382.75;;;20.67;100.00
8941;BME280;4505;43.406;23.226;2023-09-07T02:56:15;100383.19;;;20.45;100.00
8941;BME280;4505;43.406;23.226;2023-09-07T02:58:42;100396.44;;;19.93;100.00
8941;BME280;4505;43.406;23.226;2023-09-07T03:01:11;100398.88;;;19.89;100.00
8941;BME280;4505;43.406;23.226;2023-09-07T03:03:38;100401.41;;;19.71;100.00
8941;BME280;4505;43.406;23.226;2023-09-07T03:06:10;100402.53;;;19.60;100.00
8941;BME280;4505;43.406;23.226;2023-09-07T03:08:37;100392.56;;;19.60;100.00
8941;BME280;4505;43.406;23.226;2023-09-07T03:11:03;100397.66;;;19.67;100.00
8941;BME280;4505;43.406;23.226;2023-09-07T03:13:30;100404.09;;;19.71;100.00
8941;BME280;4505;43.406;23.226;2023-09-07T03:15:57;100410.84;;;19.68;100.00
8941;BME280;4505;43.406;23.226;2023-09-07T03:18:23;100415.44;;;19.58;100.00
8941;BME280;4505;43.406;23.226;2023-09-07T03:20:50;100413.97;;;19.96;100.00
8941;BME280;4505;43.406;23.226;2023-09-07T03:23:18;100413.63;;;20.07;100.00
8941;BME280;4505;43.406;23.226;2023-09-07T03:25:45;100407.44;;;20.02;100.00
8941;BME280;4505;43.406;23.226;2023-09-07T03:28:12;100410.72;;;19.99;100.00
8941;BME280;4505;43.406;23.226;2023-09-07T03:30:38;100419.34;;;19.96;100.00
8941;BME280;4505;43.406;23.226;2023-09-07T03:33:05;100407.22;;;19.93;100.00
8941;BME280;4505;43.406;23.226;2023-09-07T03:35:32;100413.38;;;20.04;100.00
8941;BME280;4505;43.406;23.226;2023-09-07T03:37:58;100411.25;;;19.96;100.00
8941;BME280;4505;43.406;23.226;2023-09-07T03:40:26;100416.50;;;20.26;100.00
8941;BME280;4505;43.406;23.226;2023-09-07T03:42:53;100426.38;;;20.45;100.00
8941;BME280;4505;43.406;23.226;2023-09-07T03:45:19;100426.09;;;20.80;100.00
8941;BME280;4505;43.406;23.226;2023-09-07T03:47:46;100423.69;;;20.40;100.00
8941;BME280;4505;43.406;23.226;2023-09-07T03:50:12;100423.41;;;20.42;100.00
8941;BME280;4505;43.406;23.226;2023-09-07T03:52:39;100422.34;;;20.38;100.00
8941;BME280;4505;43.406;23.226;2023-09-07T03:55:06;100427.06;;;20.17;100.00
8941;BME280;4505;43.406;23.226;2023-09-07T03:57:34;100433.81;;;20.20;100.00
8941;BME280;4505;43.406;23.226;2023-09-07T04:00:00;100436.59;;;19.94;100.00
8941;BME280;4505;43.406;23.226;2023-09-07T04:02:30;100433.63;;;19.96;100.00
8941;BME280;4505;43.406;23.226;2023-09-07T04:04:57;100434.25;;;20.32;100.00
8941;BME280;4505;43.406;23.226;2023-09-07T04:07:23;100440.59;;;20.07;100.00
8941;BME280;4505;43.406;23.226;2023-09-07T04:09:50;100449.75;;;20.16;100.00
8941;BME280;4505;43.406;23.226;2023-09-07T04:12:16;100461.59;;;20.10;100.00
8941;BME280;4505;43.406;23.226;2023-09-07T04:14:44;100449.06;;;19.75;100.00
8941;BME280;4505;43.406;23.226;2023-09-07T04:17:11;100449.59;;;19.77;100.00
8941;BME280;4505;43.406;23.226;2023-09-07T04:19:37;100451.34;;;20.17;100.00
8941;BME280;4505;43.406;23.226;2023-09-07T04:22:04;100451.91;;;20.14;100.00
8941;BME280;4505;43.406;23.226;2023-09-07T04:24:30;100453.34;;;19.81;100.00
8941;BME280;4505;43.406;23.226;2023-09-07T04:26:58;100449.59;;;19.87;100.00
8941;BME280;4505;43.406;23.226;2023-09-07T04:29:25;100451.00;;;19.70;100.00
8941;BME280;4505;43.406;23.226;2023-09-07T04:31:53;100461.34;;;20.07;100.00
8941;BME280;4505;43.406;23.226;2023-09-07T04:34:20;100466.09;;;19.61;100.00
8941;BME280;4505;43.406;23.226;2023-09-07T04:36:46;100464.22;;;19.51;100.00
8941;BME280;4505;43.406;23.226;2023-09-07T04:39:13;100463.69;;;19.54;100.00
8941;BME280;4505;43.406;23.226;2023-09-07T04:41:40;100477.16;;;19.49;100.00
8941;BME280;4505;43.406;23.226;2023-09-07T04:44:07;100472.59;;;19.40;100.00
8941;BME280;4505;43.406;23.226;2023-09-07T04:46:34;100474.78;;;19.38;100.00
8941;BME280;4505;43.406;23.226;2023-09-07T04:49:02;100486.59;;;19.47;100.00
8941;BME280;4505;43.406;23.226;2023-09-07T04:51:28;100479.56;;;19.61;100.00
8941;BME280;4505;43.406;23.226;2023-09-07T04:53:55;100480.59;;;19.80;100.00
8941;BME280;4505;43.406;23.226;2023-09-07T04:56:21;100491.31;;;19.95;100.00
8941;BME280;4505;43.406;23.226;2023-09-07T04:58:48;100483.53;;;19.88;100.00
8941;BME280;4505;43.406;23.226;2023-09-07T05:01:15;100490.06;;;19.67;100.00
8941;BME280;4505;43.406;23.226;2023-09-07T05:03:41;100489.22;;;19.82;100.00
8941;BME280;4505;43.406;23.226;2023-09-07T05:06:10;100488.16;;;19.78;100.00
8941;BME280;4505;43.406;23.226;2023-09-07T05:08:37;100496.72;;;19.90;100.00
8941;BME280;4505;43.406;23.226;2023-09-07T05:11:04;100488.91;;;19.88;100.00
8941;BME280;4505;43.406;23.226;2023-09-07T05:13:31;100492.97;;;19.86;100.00
8941;BME280;4505;43.406;23.226;2023-09-07T05:15:58;100493.47;;;19.93;100.00
8941;BME280;4505;43.406;23.226;2023-09-07T05:18:25;100498.31;;;19.96;100.00
8941;BME280;4505;43.406;23.226;2023-09-07T05:20:51;100496.91;;;20.14;100.00
8941;BME280;4505;43.406;23.226;2023-09-07T05:23:19;100505.03;;;20.04;100.00
8941;BME280;4505;43.406;23.226;2023-09-07T05:25:46;100499.41;;;20.00;100.00
8941;BME280;4505;43.406;23.226;2023-09-07T05:28:13;100499.69;;;19.93;100.00
8941;BME280;4505;43.406;23.226;2023-09-07T05:30:40;100506.75;;;19.79;100.00
8941;BME280;4505;43.406;23.226;2023-09-07T05:33:07;100501.91;;;19.76;100.00
8941;BME280;4505;43.406;23.226;2023-09-07T05:35:34;100502.97;;;19.75;100.00
8941;BME280;4505;43.406;23.226;2023-09-07T05:38:01;100506.69;;;19.94;100.00
8941;BME280;4505;43.406;23.226;2023-09-07T05:40:29;100505.97;;;19.64;100.00
8941;BME280;4505;43.406;23.226;2023-09-07T05:42:56;100504.88;;;19.75;100.00
8941;BME280;4505;43.406;23.226;2023-09-07T05:45:22;100505.16;;;19.68;100.00
8941;BME280;4505;43.406;23.226;2023-09-07T05:47:49;100507.06;;;19.53;100.00
8941;BME280;4505;43.406;23.226;2023-09-07T05:50:16;100512.16;;;19.59;100.00
8941;BME280;4505;43.406;23.226;2023-09-07T05:52:42;100521.06;;;19.75;100.00
8941;BME280;4505;43.406;23.226;2023-09-07T05:55:09;100519.94;;;19.86;100.00
8941;BME280;4505;43.406;23.226;2023-09-07T05:57:37;100519.41;;;19.74;100.00
8941;BME280;4505;43.406;23.226;2023-09-07T06:00:03;100517.25;;;19.76;100.00
8941;BME280;4505;43.406;23.226;2023-09-07T06:02:30;100520.69;;;19.97;100.00
8941;BME280;4505;43.406;23.226;2023-09-07T06:04:57;100517.69;;;20.18;100.00
8941;BME280;4505;43.406;23.226;2023-09-07T06:07:23;100520.44;;;19.98;100.00
8941;BME280;4505;43.406;23.226;2023-09-07T06:09:50;100518.31;;;19.85;100.00
8941;BME280;4505;43.406;23.226;2023-09-07T06:12:16;100522.06;;;19.94;100.00
8941;BME280;4505;43.406;23.226;2023-09-07T06:14:46;100525.41;;;19.51;100.00
8941;BME280;4505;43.406;23.226;2023-09-07T06:17:13;100531.56;;;19.61;100.00
8941;BME280;4505;43.406;23.226;2023-09-07T06:19:39;100530.75;;;19.66;100.00
8941;BME280;4505;43.406;23.226;2023-09-07T06:22:06;100514.31;;;19.62;100.00
8941;BME280;4505;43.406;23.226;2023-09-07T06:24:32;100525.72;;;20.28;100.00
8941;BME280;4505;43.406;23.226;2023-09-07T06:26:59;100531.47;;;20.65;100.00
8941;BME280;4505;43.406;23.226;2023-09-07T06:29:26;100533.16;;;20.56;100.00
8941;BME280;4505;43.406;23.226;2023-09-07T06:31:54;100532.25;;;20.71;100.00
8941;BME280;4505;43.406;23.226;2023-09-07T06:34:20;100532.97;;;20.81;100.00
8941;BME280;4505;43.406;23.226;2023-09-07T06:36:47;100540.63;;;21.13;100.00
8941;BME280;4505;43.406;23.226;2023-09-07T06:39:16;100538.59;;;20.90;100.00
8941;BME280;4505;43.406;23.226;2023-09-07T06:41:44;100533.75;;;20.87;100.00
8941;BME280;4505;43.406;23.226;2023-09-07T06:44:11;100541.59;;;20.35;100.00
8941;BME280;4505;43.406;23.226;2023-09-07T06:46:38;100539.75;;;20.30;100.00
8941;BME280;4505;43.406;23.226;2023-09-07T06:49:06;100548.66;;;20.31;100.00
8941;BME280;4505;43.406;23.226;2023-09-07T06:51:33;100540.97;;;20.58;100.00
8941;BME280;4505;43.406;23.226;2023-09-07T06:54:00;100539.41;;;20.47;100.00
8941;BME280;4505;43.406;23.226;2023-09-07T06:56:26;100540.72;;;20.93;100.00
8941;BME280;4505;43.406;23.226;2023-09-07T06:58:54;100539.91;;;20.97;100.00
8941;BME280;4505;43.406;23.226;2023-09-07T07:01:21;100542.72;;;21.21;100.00
8941;BME280;4505;43.406;23.226;2023-09-07T07:03:48;100534.94;;;21.14;100.00
8941;BME280;4505;43.406;23.226;2023-09-07T07:06:16;100531.06;;;21.25;100.00
8941;BME280;4505;43.406;23.226;2023-09-07T07:08:43;100527.84;;;21.81;100.00
8941;BME280;4505;43.406;23.226;2023-09-07T07:11:09;100537.44;;;22.39;100.00
8941;BME280;4505;43.406;23.226;2023-09-07T07:13:36;100536.06;;;22.41;100.00
8941;BME280;4505;43.406;23.226;2023-09-07T07:16:04;100533.06;;;22.43;100.00
8941;BME280;4505;43.406;23.226;2023-09-07T07:18:31;100537.06;;;22.45;100.00
8941;BME280;4505;43.406;23.226;2023-09-07T07:20:57;100537.78;;;22.56;100.00
8941;BME280;4505;43.406;23.226;2023-09-07T07:23:25;100541.25;;;22.38;100.00
8941;BME280;4505;43.406;23.226;2023-09-07T07:25:52;100548.97;;;22.26;100.00
8941;BME280;4505;43.406;23.226;2023-09-07T07:28:19;100546.22;;;22.49;100.00
8941;BME280;4505;43.406;23.226;2023-09-07T07:30:45;100551.19;;;22.42;100.00
8941;BME280;4505;43.406;23.226;2023-09-07T07:33:13;100543.88;;;22.43;100.00
8941;BME280;4505;43.406;23.226;2023-09-07T07:35:39;100541.38;;;22.46;100.00
8941;BME280;4505;43.406;23.226;2023-09-07T07:38:06;100551.59;;;22.54;100.00
8941;BME280;4505;43.406;23.226;2023-09-07T07:40:35;100546.34;;;22.82;100.00
8941;BME280;4505;43.406;23.226;2023-09-07T07:43:02;100539.97;;;22.30;100.00
8941;BME280;4505;43.406;23.226;2023-09-07T07:45:29;100544.41;;;22.21;100.00
8941;BME280;4505;43.406;23.226;2023-09-07T07:47:57;100544.19;;;22.41;100.00
8941;BME280;4505;43.406;23.226;2023-09-07T07:50:23;100547.13;;;22.21;100.00
8941;BME280;4505;43.406;23.226;2023-09-07T07:52:50;100552.31;;;22.18;100.00
8941;BME280;4505;43.406;23.226;2023-09-07T07:55:17;100550.13;;;21.96;100.00
8941;BME280;4505;43.406;23.226;2023-09-07T07:57:45;100559.41;;;22.14;100.00
8941;BME280;4505;43.406;23.226;2023-09-07T08:00:12;100547.88;;;22.03;100.00
8941;BME280;4505;43.406;23.226;2023-09-07T08:02:38;100554.44;;;22.21;100.00
8941;BME280;4505;43.406;23.226;2023-09-07T08:05:05;100554.22;;;22.59;100.00
8941;BME280;4505;43.406;23.226;2023-09-07T08:07:32;100544.88;;;22.71;100.00
8941;BME280;4505;43.406;23.226;2023-09-07T08:09:58;100548.63;;;22.56;100.00
8941;BME280;4505;43.406;23.226;2023-09-07T08:12:25;100547.31;;;22.72;100.00
8941;BME280;4505;43.406;23.226;2023-09-07T08:14:53;100539.97;;;22.91;100.00
8941;BME280;4505;43.406;23.226;2023-09-07T08:17:20;100543.41;;;22.59;100.00
8941;BME280;4505;43.406;23.226;2023-09-07T08:19:48;100543.81;;;22.48;100.00
8941;BME280;4505;43.406;23.226;2023-09-07T08:22:20;100540.97;;;23.32;100.00
8941;BME280;4505;43.406;23.226;2023-09-07T08:24:46;100544.50;;;22.77;100.00
8941;BME280;4505;43.406;23.226;2023-09-07T08:27:13;100537.09;;;23.01;100.00
8941;BME280;4505;43.406;23.226;2023-09-07T08:29:43;100546.28;;;23.69;100.00
8941;BME280;4505;43.406;23.226;2023-09-07T08:32:13;100535.97;;;23.53;100.00
8941;BME280;4505;43.406;23.226;2023-09-07T08:34:40;100540.75;;;22.92;100.00
8941;BME280;4505;43.406;23.226;2023-09-07T08:37:08;100535.78;;;22.99;100.00
8941;BME280;4505;43.406;23.226;2023-09-07T08:39:35;100540.84;;;22.68;100.00
8941;BME280;4505;43.406;23.226;2023-09-07T08:42:04;100543.19;;;22.93;100.00
8941;BME280;4505;43.406;23.226;2023-09-07T08:44:32;100539.25;;;22.67;100.00
8941;BME280;4505;43.406;23.226;2023-09-07T08:46:59;100535.09;;;23.57;100.00
8941;BME280;4505;43.406;23.226;2023-09-07T08:49:27;100541.03;;;23.27;100.00
8941;BME280;4505;43.406;23.226;2023-09-07T08:51:58;100538.72;;;23.66;100.00
8941;BME280;4505;43.406;23.226;2023-09-07T08:54:24;100536.88;;;24.21;100.00
8941;BME280;4505;43.406;23.226;2023-09-07T08:56:51;100535.19;;;24.74;99.43
8941;BME280;4505;43.406;23.226;2023-09-07T08:59:18;100533.91;;;24.94;95.39
8941;BME280;4505;43.406;23.226;2023-09-07T09:01:44;100534.25;;;25.14;94.76
8941;BME280;4505;43.406;23.226;2023-09-07T09:04:11;100538.19;;;25.30;90.21
8941;BME280;4505;43.406;23.226;2023-09-07T09:06:42;100533.28;;;25.63;88.58
8941;BME280;4505;43.406;23.226;2023-09-07T09:09:09;100536.63;;;24.45;95.09
8941;BME280;4505;43.406;23.226;2023-09-07T09:11:38;100534.94;;;24.49;99.09
8941;BME280;4505;43.406;23.226;2023-09-07T09:14:05;100530.63;;;24.83;94.89
8941;BME280;4505;43.406;23.226;2023-09-07T09:16:32;100537.75;;;24.44;99.10
8941;BME280;4505;43.406;23.226;2023-09-07T09:18:59;100539.44;;;24.67;95.18
8941;BME280;4505;43.406;23.226;2023-09-07T09:21:26;100531.44;;;23.94;98.64
8941;BME280;4505;43.406;23.226;2023-09-07T09:23:56;100530.84;;;24.87;94.04
8941;BME280;4505;43.406;23.226;2023-09-07T09:26:25;100523.09;;;24.80;95.81
8941;BME280;4505;43.406;23.226;2023-09-07T09:28:55;100520.50;;;25.19;90.13
8941;BME280;4505;43.406;23.226;2023-09-07T09:31:21;100516.19;;;25.71;87.90
8941;BME280;4505;43.406;23.226;2023-09-07T09:33:49;100517.69;;;25.47;87.50
8941;BME280;4505;43.406;23.226;2023-09-07T09:36:16;100513.78;;;25.17;89.97
8941;BME280;4505;43.406;23.226;2023-09-07T09:38:46;100509.09;;;25.62;87.20
8941;BME280;4505;43.406;23.226;2023-09-07T09:41:17;100511.47;;;26.50;78.22
8941;BME280;4505;43.406;23.226;2023-09-07T09:43:45;100511.47;;;26.50;74.69
8941;BME280;4505;43.406;23.226;2023-09-07T09:46:14;100504.63;;;26.95;75.30
8941;BME280;4505;43.406;23.226;2023-09-07T09:48:41;100504.28;;;27.31;67.98
8941;BME280;4505;43.406;23.226;2023-09-07T09:51:08;100496.75;;;27.74;65.07
8941;BME280;4505;43.406;23.226;2023-09-07T09:53:36;100498.72;;;26.85;71.13
8941;BME280;4505;43.406;23.226;2023-09-07T09:56:03;100496.41;;;26.44;76.22
8941;BME280;4505;43.406;23.226;2023-09-07T09:58:31;100501.06;;;27.29;70.59
8941;BME280;4505;43.406;23.226;2023-09-07T10:00:58;100494.81;;;27.03;69.47
8941;BME280;4505;43.406;23.226;2023-09-07T10:03:27;100492.72;;;26.48;77.16
8941;BME280;4505;43.406;23.226;2023-09-07T10:05:55;100492.25;;;27.06;73.12
8941;BME280;4505;43.406;23.226;2023-09-07T10:08:22;100484.13;;;26.98;75.98
8941;BME280;4505;43.406;23.226;2023-09-07T10:10:49;100499.19;;;26.69;73.46
8941;BME280;4505;43.406;23.226;2023-09-07T10:13:28;100483.28;;;26.63;75.22
8941;BME280;4505;43.406;23.226;2023-09-07T10:16:01;100488.84;;;26.24;75.47
8941;BME280;4505;43.406;23.226;2023-09-07T10:18:33;100477.88;;;26.72;72.75
8941;BME280;4505;43.406;23.226;2023-09-07T10:20:59;100482.00;;;26.52;75.63
8941;BME280;4505;43.406;23.226;2023-09-07T10:23:37;100475.84;;;26.04;78.05
8941;BME280;4505;43.406;23.226;2023-09-07T10:26:05;100478.78;;;26.50;76.22
8941;BME280;4505;43.406;23.226;2023-09-07T10:28:31;100469.00;;;25.76;76.43
8941;BME280;4505;43.406;23.226;2023-09-07T10:31:03;100467.84;;;26.16;77.75
8941;BME280;4505;43.406;23.226;2023-09-07T10:33:30;100469.03;;;27.00;70.59
8941;BME280;4505;43.406;23.226;2023-09-07T10:35:57;100469.69;;;25.98;72.01
8941;BME280;4505;43.406;23.226;2023-09-07T10:38:23;100466.59;;;26.30;71.11
8941;BME280;4505;43.406;23.226;2023-09-07T10:40:54;100468.72;;;26.50;69.83
8941;BME280;4505;43.406;23.226;2023-09-07T10:43:22;100455.53;;;26.18;73.86
8941;BME280;4505;43.406;23.226;2023-09-07T10:45:49;100455.50;;;27.21;69.84
8941;BME280;4505;43.406;23.226;2023-09-07T10:48:17;100458.88;;;27.18;65.83
8941;BME280;4505;43.406;23.226;2023-09-07T10:50:44;100451.34;;;27.23;65.30
8941;BME280;4505;43.406;23.226;2023-09-07T10:53:11;100446.03;;;27.27;66.06
8941;BME280;4505;43.406;23.226;2023-09-07T10:55:38;100449.47;;;26.64;69.58
8941;BME280;4505;43.406;23.226;2023-09-07T10:58:05;100446.59;;;26.78;68.06
8941;BME280;4505;43.406;23.226;2023-09-07T11:00:31;100445.34;;;26.66;69.29
8941;BME280;4505;43.406;23.226;2023-09-07T11:02:58;100450.31;;;27.45;66.36
8941;BME280;4505;43.406;23.226;2023-09-07T11:05:26;100441.16;;;27.49;62.29
8941;BME280;4505;43.406;23.226;2023-09-07T11:07:53;100440.31;;;27.57;62.36
8941;BME280;4505;43.406;23.226;2023-09-07T11:10:20;100439.25;;;26.78;66.60
8941;BME280;4505;43.406;23.226;2023-09-07T11:12:47;100437.94;;;26.58;67.83
8941;BME280;4505;43.406;23.226;2023-09-07T11:15:13;100426.22;;;26.58;70.21
8941;BME280;4505;43.406;23.226;2023-09-07T11:17:40;100435.22;;;26.76;70.06
8941;BME280;4505;43.406;23.226;2023-09-07T11:20:07;100425.25;;;26.88;68.79
8941;BME280;4505;43.406;23.226;2023-09-07T11:22:37;100437.63;;;26.34;70.84
8941;BME280;4505;43.406;23.226;2023-09-07T11:25:05;100435.78;;;25.96;74.64
8941;BME280;4505;43.406;23.226;2023-09-07T11:27:31;100415.19;;;26.37;74.68
8941;BME280;4505;43.406;23.226;2023-09-07T11:29:58;100427.03;;;26.76;67.26
8941;BME280;4505;43.406;23.226;2023-09-07T11:32:32;100412.69;;;27.13;65.96
8941;BME280;4505;43.406;23.226;2023-09-07T11:34:59;100414.88;;;27.74;61.93
8941;BME280;4505;43.406;23.226;2023-09-07T11:37:26;100411.63;;;27.89;62.23
8941;BME280;4505;43.406;23.226;2023-09-07T11:39:54;100414.94;;;28.15;59.78
8941;BME280;4505;43.406;23.226;2023-09-07T11:42:21;100414.53;;;28.87;55.80
8941;BME280;4505;43.406;23.226;2023-09-07T11:44:48;100404.34;;;29.08;54.78
8941;BME280;4505;43.406;23.226;2023-09-07T11:47:16;100400.13;;;28.78;56.20
8941;BME280;4505;43.406;23.226;2023-09-07T11:49:43;100398.66;;;28.80;56.86
8941;BME280;4505;43.406;23.226;2023-09-07T11:52:09;100394.47;;;28.50;57.19
8941;BME280;4505;43.406;23.226;2023-09-07T11:54:36;100397.75;;;27.65;61.19
8941;BME280;4505;43.406;23.226;2023-09-07T11:57:04;100398.03;;;27.72;62.80
8941;BME280;4505;43.406;23.226;2023-09-07T11:59:31;100393.34;;;26.97;65.92
8941;BME280;4505;43.406;23.226;2023-09-07T12:01:57;100385.88;;;26.68;68.50
8941;BME280;4505;43.406;23.226;2023-09-07T12:04:24;100380.06;;;26.61;71.29
8941;BME280;4505;43.406;23.226;2023-09-07T12:06:50;100376.44;;;27.12;65.55
8941;BME280;4505;43.406;23.226;2023-09-07T12:09:17;100379.28;;;26.35;71.55
8941;BME280;4505;43.406;23.226;2023-09-07T12:11:44;100377.53;;;26.48;70.55
8941;BME280;4505;43.406;23.226;2023-09-07T12:14:12;100370.75;;;26.88;70.14
8941;BME280;4505;43.406;23.226;2023-09-07T12:16:38;100370.00;;;27.63;66.72
8941;BME280;4505;43.406;23.226;2023-09-07T12:19:05;100376.00;;;28.06;64.04
8941;BME280;4505;43.406;23.226;2023-09-07T12:21:31;100365.88;;;28.27;58.61
8941;BME280;4505;43.406;23.226;2023-09-07T12:23:58;100368.38;;;28.85;55.59
8941;BME280;4505;43.406;23.226;2023-09-07T12:26:26;100363.66;;;29.06;54.12
8941;BME280;4505;43.406;23.226;2023-09-07T12:28:54;100363.56;;;28.70;56.65
8941;BME280;4505;43.406;23.226;2023-09-07T12:31:22;100367.34;;;27.75;60.23
8941;BME280;4505;43.406;23.226;2023-09-07T12:33:51;100359.09;;;28.66;56.75
8941;BME280;4505;43.406;23.226;2023-09-07T12:36:18;100356.28;;;29.19;56.53
8941;BME280;4505;43.406;23.226;2023-09-07T12:38:46;100345.91;;;30.24;49.35
8941;BME280;4505;43.406;23.226;2023-09-07T12:41:13;100342.22;;;30.75;46.88
8941;BME280;4505;43.406;23.226;2023-09-07T12:43:40;100345.19;;;30.27;48.65
8941;BME280;4505;43.406;23.226;2023-09-07T12:46:07;100343.81;;;29.94;51.04
8941;BME280;4505;43.406;23.226;2023-09-07T12:48:36;100339.66;;;30.12;49.53
8941;BME280;4505;43.406;23.226;2023-09-07T12:51:02;100344.31;;;29.23;52.89
8941;BME280;4505;43.406;23.226;2023-09-07T12:53:29;100339.81;;;28.95;54.37